Airfield :
LOGIN :

Register | Disclaimer

   EN    FR    IT 

 










Legend :    VFR   Marginal VFR   IFR   Intensive IFR   Very Intensive IFR
Visi :
Ceiling :
>= 8 km
>= 3000ft
5 to 8 km
1000 to 3000 ft
1500m to 5 km
500 to 1000 ft
800 to 1500m
200 to 500 ft
< 800m
< 200 ft
Symbols :   Thunderstorms  Fog  Heavy snow  Heavy precipitations  Wind > 20 kt
SIGMETs :     Misc.  Thunderstorms  Icing  Turbulence  Mountain Waves  Volcanic Ashes







- Airport Elevation : 122 ft
- IATA code : TXL


EDDT - Berlin Tegel Int.

CURRENT METAR :
  • 221550Z 14007KT 110V170 CAVOK M02/M06 Q1009 NOSIG

EXPIRED METARs :
  • 221520Z 15008KT CAVOK M01/M06 Q1009 NOSIG
  • 221450Z 16008KT CAVOK M00/M06 Q1009 NOSIG
  • 221420Z 15008KT CAVOK 00/M06 Q1010 NOSIG
  • 221350Z 13009KT CAVOK M00/M06 Q1010 NOSIG
  • 221320Z 15007KT CAVOK 00/M06 Q1010 NOSIG

TAF TAF EDDT
Valid from the 22 at 12:00 until the 23 at 12:00 UTC


221100Z 2212/2312 15007KT CAVOK
No reported NOTAMs for that airfield.



MET'MAP, your aeronautical weather chart ! - Copyright ORBIFLY December 2007 - Disclaimer

ORBIFLY MET'MAP TEAM :

Programming & Development : Alexandra Zaïnal
Concept & Development : Baudouin d'Aumeries
Co-Development & Prog : Marc-Olivier Méhu
Technical & hardware support : Manuel Goepfert

Contact : metmap@orbifly.com




SOURCES & CREDITS :

   NOAA